Time;durP1;ratioP1;P1;durP2;ratioP2;P2;SDS_P1;SDS_P2;PMS_P1;PMS_P2;Temp;Humidity;BMP_temperature;BMP_pressure;BME280_temperature;BME280_humidity;BME280_pressure;Samples;Min_cycle;Max_cycle;Signal;HPM_P1;HPM_P2
2023/01/31 00:01:36;;;;;;;35.13;18.55;;;;;;;15.30;50.70;102569.50;5046829;28;20321;-34
2023/01/31 00:04:06;;;;;;;31.70;18.13;;;;;;;15.31;50.35;102576.53;5045960;28;20049;-34
2023/01/31 00:06:35;;;;;;;32.50;17.98;;;;;;;15.30;50.71;102575.69;5043784;28;20439;-34
2023/01/31 00:09:04;;;;;;;31.35;17.33;;;;;;;15.30;50.13;102570.34;5041839;28;20373;-34
2023/01/31 00:11:31;;;;;;;30.48;16.55;;;;;;;15.31;50.77;102566.72;5042572;28;20048;-33
2023/01/31 00:13:59;;;;;;;32.90;17.70;;;;;;;15.31;50.85;102569.38;5045659;28;20057;-33
2023/01/31 00:16:26;;;;;;;35.53;17.40;;;;;;;15.34;50.28;102563.00;5044302;28;20052;-34
2023/01/31 00:18:52;;;;;;;27.92;16.38;;;;;;;15.33;50.86;102555.09;5044443;28;20057;-34
2023/01/31 00:21:22;;;;;;;31.58;17.08;;;;;;;15.32;49.92;102540.88;5044732;28;20424;-34
2023/01/31 00:23:50;;;;;;;29.15;15.77;;;;;;;15.33;49.79;102528.38;5042645;28;20465;-34
2023/01/31 00:26:28;;;;;;;32.05;17.02;;;;;;;15.31;50.41;102521.31;5046877;28;20057;-34
2023/01/31 00:28:57;;;;;;;29.50;16.20;;;;;;;15.33;49.83;102520.38;5048692;28;20055;-34
2023/01/31 00:31:25;;;;;;;27.60;15.35;;;;;;;15.33;50.33;102504.34;5044983;28;20330;-34
2023/01/31 00:33:53;;;;;;;30.52;15.55;;;;;;;15.32;50.59;102506.16;5047397;28;20057;-35
2023/01/31 00:36:26;;;;;;;27.42;14.93;;;;;;;15.30;50.83;102502.72;5049813;28;20057;-35
2023/01/31 00:38:56;;;;;;;30.17;16.33;;;;;;;15.31;49.81;102488.38;5044007;28;20048;-36
2023/01/31 00:41:24;;;;;;;28.92;15.52;;;;;;;15.30;49.93;102482.19;5045510;28;20059;-36
2023/01/31 00:43:51;;;;;;;25.45;14.50;;;;;;;15.28;50.49;102481.44;5046972;28;20059;-35
2023/01/31 00:46:19;;;;;;;29.90;16.02;;;;;;;15.29;50.51;102474.28;5046590;28;20041;-36
2023/01/31 00:48:46;;;;;;;26.05;13.90;;;;;;;15.27;50.04;102479.69;5046059;28;20052;-36
2023/01/31 00:51:13;;;;;;;29.00;14.95;;;;;;;15.26;50.62;102472.66;5047164;28;20045;-32
2023/01/31 00:53:40;;;;;;;25.40;14.48;;;;;;;15.25;50.23;102467.41;5044010;28;20049;-35
2023/01/31 00:56:13;;;;;;;28.45;14.15;;;;;;;15.24;50.05;102468.38;5047343;28;20424;-35
2023/01/31 00:58:39;;;;;;;27.10;12.68;;;;;;;15.23;50.32;102459.47;5046524;28;20057;-35
2023/01/31 01:01:10;;;;;;;25.02;13.43;;;;;;;15.21;50.60;102466.75;5045031;28;20049;-35
2023/01/31 01:03:38;;;;;;;23.92;12.60;;;;;;;15.20;49.87;102465.03;5044763;28;20053;-36
2023/01/31 01:06:05;;;;;;;22.13;12.18;;;;;;;15.19;50.40;102462.44;5046254;28;20049;-39
2023/01/31 01:08:33;;;;;;;23.25;13.00;;;;;;;15.19;49.71;102467.78;5042750;28;20125;-35
2023/01/31 01:11:16;;;;;;;26.10;12.02;;;;;;;15.15;50.54;102461.78;5043722;28;20056;-35
2023/01/31 01:13:43;;;;;;;23.88;12.45;;;;;;;15.17;50.23;102470.56;5044988;28;20056;-35
2023/01/31 01:16:16;;;;;;;21.85;12.43;;;;;;;15.15;50.57;102472.44;5046318;28;20053;-33
2023/01/31 01:18:45;;;;;;;22.05;11.77;;;;;;;15.17;50.48;102472.38;5047206;28;20053;-33
2023/01/31 01:21:15;;;;;;;19.38;11.88;;;;;;;15.16;49.70;102468.84;5045650;28;20052;-35
2023/01/31 01:23:41;;;;;;;23.10;11.60;;;;;;;15.15;50.30;102469.78;5047306;28;20052;-34
2023/01/31 01:26:17;;;;;;;20.23;10.32;;;;;;;15.15;50.21;102471.59;5044906;28;20053;-34
2023/01/31 01:28:44;;;;;;;21.80;10.85;;;;;;;15.15;49.81;102467.13;5050949;28;20041;-34
2023/01/31 01:31:13;;;;;;;22.80;11.32;;;;;;;15.14;50.60;102468.06;5047649;28;20179;-34
2023/01/31 01:33:39;;;;;;;19.10;9.82;;;;;;;15.14;49.80;102473.41;5049495;28;20136;-34
2023/01/31 01:36:10;;;;;;;19.48;10.52;;;;;;;15.15;50.14;102472.44;5048237;28;20109;-34
2023/01/31 01:38:37;;;;;;;21.02;10.93;;;;;;;15.15;49.85;102471.59;5044491;28;20111;-33
2023/01/31 01:41:04;;;;;;;21.10;10.65;;;;;;;15.13;49.59;102471.72;5046269;28;20052;-34
2023/01/31 01:43:55;;;;;;;20.80;9.95;;;;;;;15.13;49.53;102468.19;5050578;28;20114;-34
2023/01/31 01:46:26;;;;;;;21.35;9.77;;;;;;;15.14;49.20;102472.56;5048193;28;20053;-34
2023/01/31 01:49:01;;;;;;;22.05;10.10;;;;;;;15.12;50.29;102485.16;5047986;28;20044;-33
2023/01/31 01:51:31;;;;;;;20.98;9.80;;;;;;;15.12;49.74;102485.16;5045633;28;20049;-34
2023/01/31 01:54:02;;;;;;;17.83;9.25;;;;;;;15.11;49.33;102489.63;5045934;28;20061;-35
2023/01/31 01:56:36;;;;;;;16.80;7.72;;;;;;;15.10;49.82;102490.59;5047793;28;20061;-34
2023/01/31 01:59:11;;;;;;;18.98;8.52;;;;;;;15.10;49.25;102489.72;5048580;28;20051;-34
2023/01/31 02:01:38;;;;;;;16.60;8.27;;;;;;;15.10;49.05;102479.03;5049779;28;20337;-34
2023/01/31 02:04:08;;;;;;;16.08;8.07;;;;;;;15.09;49.60;102482.69;5046645;28;20140;-34
2023/01/31 02:06:35;;;;;;;16.17;7.40;;;;;;;15.09;50.01;102470.19;5048727;28;20045;-33
2023/01/31 02:09:05;;;;;;;16.48;7.97;;;;;;;15.09;49.13;102477.34;5043320;28;20183;-33
2023/01/31 02:11:32;;;;;;;15.35;7.63;;;;;;;15.07;48.83;102472.06;5041679;28;20322;-34
2023/01/31 02:14:08;;;;;;;16.05;7.53;;;;;;;15.06;49.23;102470.38;5049673;28;20061;-33
2023/01/31 02:16:35;;;;;;;15.73;7.40;;;;;;;15.07;49.38;102477.41;5048921;28;20045;-34
2023/01/31 02:19:11;;;;;;;17.10;7.45;;;;;;;15.05;48.99;102482.00;5047420;28;20357;-34
2023/01/31 02:21:52;;;;;;;14.40;7.13;;;;;;;15.05;49.66;102471.31;5047902;28;20067;-34
2023/01/31 02:24:53;;;;;;;15.45;7.03;;;;;;;15.02;49.17;102472.34;5048611;28;20045;-34
2023/01/31 02:27:40;;;;;;;15.15;7.05;;;;;;;15.04;49.72;102474.94;5046029;28;20041;-34
2023/01/31 02:30:31;;;;;;;14.50;6.65;;;;;;;15.03;50.00;102476.78;5047334;28;20060;-34
2023/01/31 02:33:16;;;;;;;13.30;6.68;;;;;;;15.03;49.92;102468.75;5046808;28;20041;-34
2023/01/31 02:36:10;;;;;;;13.63;6.40;;;;;;;15.03;49.18;102457.19;5048441;28;20178;-34
2023/01/31 02:38:53;;;;;;;14.45;6.15;;;;;;;15.01;49.91;102457.28;5048276;28;20047;-34
2023/01/31 02:41:25;;;;;;;13.02;6.50;;;;;;;15.01;49.90;102453.78;5046412;28;20065;-34
2023/01/31 02:47:04;;;;;;;13.90;6.05;;;;;;;14.99;49.03;102444.97;5045473;28;20083;-34
2023/01/31 02:49:40;;;;;;;15.10;6.55;;;;;;;14.99;49.40;102447.66;5044868;28;20417;-33
2023/01/31 02:52:51;;;;;;;12.60;5.97;;;;;;;14.98;49.93;102451.28;5047917;28;20059;-33
2023/01/31 02:58:13;;;;;;;14.55;6.03;;;;;;;14.98;49.87;102444.13;5048337;28;20456;-34
2023/01/31 03:00:43;;;;;;;12.05;5.00;;;;;;;14.99;49.96;102442.31;5048448;28;20048;-33
2023/01/31 03:03:23;;;;;;;13.55;5.78;;;;;;;14.98;48.94;102438.78;5052414;28;20074;-33
2023/01/31 03:06:13;;;;;;;18.65;5.78;;;;;;;14.97;50.01;102438.91;5049819;28;20061;-33
2023/01/31 03:08:43;;;;;;;16.48;6.55;;;;;;;15.00;49.16;102433.38;5047968;28;20083;-33
2023/01/31 03:11:10;;;;;;;9.70;4.90;;;;;;;15.00;49.91;102426.22;5045705;28;20048;-33
2023/01/31 03:13:53;;;;;;;12.70;5.57;;;;;;;14.99;49.91;102431.63;5047968;28;20052;-33
2023/01/31 03:19:20;;;;;;;11.05;4.90;;;;;;;15.01;49.66;102430.59;5047411;28;20463;-34
2023/01/31 03:22:15;;;;;;;9.98;4.43;;;;;;;15.01;50.05;102432.41;5046244;28;20282;-34
2023/01/31 03:24:46;;;;;;;10.52;4.85;;;;;;;15.04;50.01;102430.41;5047173;28;20048;-34
2023/01/31 03:27:14;;;;;;;10.90;5.30;;;;;;;15.05;49.74;102425.94;5045604;28;20049;-35
2023/01/31 03:29:42;;;;;;;11.07;4.85;;;;;;;15.07;49.10;102421.34;5050186;28;20456;-33
2023/01/31 03:32:32;;;;;;;12.38;4.90;;;;;;;15.05;49.05;102420.59;5042525;28;20393;-33
2023/01/31 03:34:58;;;;;;;10.68;4.70;;;;;;;15.06;50.09;102404.47;5043100;28;20060;-34
2023/01/31 03:37:38;;;;;;;9.88;4.68;;;;;;;15.06;50.15;102401.78;5042250;28;20045;-33
2023/01/31 03:40:20;;;;;;;11.48;4.80;;;;;;;15.08;49.89;102396.38;5039310;28;20059;-33
2023/01/31 03:43:00;;;;;;;9.18;3.97;;;;;;;15.08;49.77;102400.84;5042717;28;20084;-34
2023/01/31 03:45:37;;;;;;;10.25;4.05;;;;;;;15.09;49.48;102391.88;5042508;28;20052;-34
2023/01/31 03:48:12;;;;;;;10.73;4.43;;;;;;;15.08;49.98;102393.69;5041880;28;20341;-34
2023/01/31 03:50:45;;;;;;;12.65;5.03;;;;;;;15.08;48.95;102396.38;5040088;28;20425;-33
2023/01/31 03:53:11;;;;;;;9.40;4.88;;;;;;;15.09;49.80;102387.41;5043892;28;20128;-34
2023/01/31 03:55:52;;;;;;;10.10;4.40;;;;;;;15.08;49.11;102391.03;5043158;28;20048;-33
2023/01/31 03:58:22;;;;;;;8.82;4.35;;;;;;;15.10;49.15;102398.94;5043531;28;20046;-34
2023/01/31 04:00:51;;;;;;;7.90;3.95;;;;;;;15.09;50.07;102397.22;5044533;28;20045;-34
2023/01/31 04:03:20;;;;;;;10.40;4.15;;;;;;;15.08;50.22;102399.03;5045603;28;20045;-34
2023/01/31 04:05:47;;;;;;;9.70;4.55;;;;;;;15.08;50.07;102387.50;5045124;28;20055;-34
2023/01/31 04:08:15;;;;;;;10.00;4.30;;;;;;;15.06;49.97;102388.44;5046417;28;20125;-33
2023/01/31 04:10:42;;;;;;;9.77;4.30;;;;;;;15.05;49.43;102381.38;5043028;28;20407;-34
2023/01/31 04:13:09;;;;;;;10.38;4.00;;;;;;;15.05;49.56;102383.19;5048621;28;20082;-33
2023/01/31 04:15:35;;;;;;;8.80;3.63;;;;;;;15.04;49.27;102379.69;5049715;28;20045;-33
2023/01/31 04:18:02;;;;;;;8.57;3.63;;;;;;;15.04;50.31;102378.81;5045975;28;20045;-34
2023/01/31 04:20:29;;;;;;;11.07;3.97;;;;;;;15.03;49.58;102371.75;5046005;28;20048;-34
2023/01/31 04:22:55;;;;;;;7.45;3.85;;;;;;;15.03;49.96;102361.06;5042558;28;20056;-34
2023/01/31 04:25:22;;;;;;;11.13;4.28;;;;;;;15.02;49.96;102370.03;5046260;28;20470;-33
2023/01/31 04:27:50;;;;;;;10.32;3.72;;;;;;;15.01;49.67;102363.84;5046338;28;20056;-34
2023/01/31 04:30:17;;;;;;;10.93;4.13;;;;;;;15.01;49.87;102361.16;5046967;28;20135;-33
2023/01/31 04:32:43;;;;;;;8.45;3.35;;;;;;;15.01;49.34;102360.31;5045571;28;20052;-34
2023/01/31 04:35:10;;;;;;;7.55;3.47;;;;;;;14.98;49.52;102358.69;5044837;28;20056;-35
2023/01/31 04:37:37;;;;;;;10.73;3.60;;;;;;;14.99;50.33;102364.88;5045585;28;20077;-34
2023/01/31 04:40:04;;;;;;;9.18;3.55;;;;;;;14.98;49.88;102364.03;5045112;28;20051;-34
2023/01/31 04:42:31;;;;;;;10.20;3.58;;;;;;;14.98;49.67;102358.69;5043765;28;20458;-34
2023/01/31 04:44:58;;;;;;;8.38;3.50;;;;;;;14.98;49.52;102344.50;5045653;28;20048;-34
2023/01/31 04:47:25;;;;;;;9.38;3.75;;;;;;;14.98;49.29;102352.50;5046125;28;20044;-34
2023/01/31 04:49:51;;;;;;;9.93;3.70;;;;;;;14.99;49.99;102340.84;5045612;28;20049;-35
2023/01/31 04:52:18;;;;;;;9.10;3.60;;;;;;;14.98;49.11;102344.50;5048853;28;20045;-35
2023/01/31 04:54:44;;;;;;;7.03;3.20;;;;;;;14.98;50.28;102344.50;5047861;28;20053;-34
2023/01/31 04:57:11;;;;;;;7.40;2.78;;;;;;;14.97;49.67;102351.66;5048009;28;20079;-34
2023/01/31 04:59:37;;;;;;;7.55;3.42;;;;;;;14.96;49.33;102339.25;5050808;28;20127;-36
2023/01/31 05:02:04;;;;;;;10.73;3.50;;;;;;;14.97;50.35;102342.78;5052649;28;20049;-33
2023/01/31 05:04:31;;;;;;;7.75;3.60;;;;;;;14.97;49.25;102345.44;5046885;28;20110;-33
2023/01/31 05:06:58;;;;;;;12.07;3.70;;;;;;;14.97;49.29;102351.66;5044899;28;20053;-34
2023/01/31 05:09:25;;;;;;;10.45;3.92;;;;;;;14.96;49.64;102336.59;5046867;28;20036;-33
2023/01/31 05:11:51;;;;;;;10.23;4.07;;;;;;;14.96;49.29;102336.59;5049898;28;20063;-33
2023/01/31 05:14:19;;;;;;;8.13;3.28;;;;;;;14.96;50.24;102336.59;5048667;28;20053;-34
2023/01/31 05:16:46;;;;;;;7.55;2.85;;;;;;;14.96;49.41;102336.59;5045372;28;20046;-33
2023/01/31 05:19:16;;;;;;;9.30;3.42;;;;;;;14.96;50.02;102327.72;5046215;28;20053;-33
2023/01/31 05:21:57;;;;;;;10.77;4.38;;;;;;;14.96;49.25;102333.91;5050047;28;20047;-33
2023/01/31 05:24:28;;;;;;;11.77;3.78;;;;;;;14.95;49.86;102316.16;5047050;28;20305;-34
2023/01/31 05:26:57;;;;;;;8.32;3.25;;;;;;;14.96;50.12;102327.72;5049751;28;20044;-34
2023/01/31 05:29:25;;;;;;;10.43;4.05;;;;;;;14.96;49.47;102338.41;5047529;28;20057;-33
2023/01/31 05:31:54;;;;;;;10.30;3.88;;;;;;;14.95;49.87;102326.84;5047561;28;20053;-34
2023/01/31 05:34:24;;;;;;;11.90;3.97;;;;;;;14.96;49.48;102330.41;5047551;28;20071;-34
2023/01/31 05:36:51;;;;;;;11.65;3.60;;;;;;;14.96;49.57;102325.91;5044694;28;20048;-34
2023/01/31 05:39:18;;;;;;;12.93;3.35;;;;;;;14.96;49.39;102330.41;5045281;28;20049;-33
2023/01/31 05:41:45;;;;;;;8.82;3.65;;;;;;;14.97;49.36;102313.41;5047232;28;20111;-34
2023/01/31 05:44:11;;;;;;;10.23;3.85;;;;;;;14.97;49.95;102314.25;5050744;28;20056;-34
2023/01/31 05:46:38;;;;;;;9.73;3.58;;;;;;;14.98;49.31;102315.13;5043336;28;20045;-34
2023/01/31 05:49:04;;;;;;;7.57;3.10;;;;;;;14.98;49.27;102304.44;5044368;28;20048;-34
2023/01/31 05:51:31;;;;;;;7.93;3.78;;;;;;;15.00;49.85;102308.72;5041526;28;20045;-34
2023/01/31 05:53:58;;;;;;;13.80;4.30;;;;;;;15.01;49.51;102318.44;5040588;28;20045;-33
2023/01/31 05:56:25;;;;;;;8.50;3.55;;;;;;;15.02;49.43;102316.63;5045895;28;20084;-33
2023/01/31 05:58:51;;;;;;;8.30;3.67;;;;;;;15.03;49.21;102318.34;5049204;28;20036;-34
2023/01/31 06:01:20;;;;;;;9.85;3.70;;;;;;;15.04;49.81;102314.75;5047708;28;20049;-35
2023/01/31 06:03:48;;;;;;;8.52;3.15;;;;;;;15.05;49.28;102311.09;5049049;28;20060;-34
2023/01/31 06:06:15;;;;;;;6.90;3.30;;;;;;;15.05;49.26;102306.63;5048775;28;20055;-36
2023/01/31 06:08:42;;;;;;;11.65;3.90;;;;;;;15.05;49.56;102293.28;5047061;28;20045;-37
2023/01/31 06:11:10;;;;;;;8.38;3.08;;;;;;;15.06;49.81;102292.31;5042566;28;20083;-34
2023/01/31 06:13:37;;;;;;;13.02;3.97;;;;;;;15.06;49.62;102291.44;5046155;28;20423;-34
2023/01/31 06:16:04;;;;;;;10.23;3.80;;;;;;;15.07;49.98;102293.16;5042921;28;20458;-35
2023/01/31 06:18:31;;;;;;;7.45;3.33;;;;;;;15.08;49.06;102294.03;5046211;28;20040;-35
2023/01/31 06:20:58;;;;;;;11.98;3.42;;;;;;;15.07;50.21;102298.50;5045019;28;20049;-34
2023/01/31 06:23:25;;;;;;;11.27;4.20;;;;;;;15.08;49.31;102299.38;5043499;28;20053;-33
2023/01/31 06:25:52;;;;;;;9.90;3.78;;;;;;;15.07;49.14;102303.84;5043571;28;20045;-34
2023/01/31 06:28:19;;;;;;;10.25;3.50;;;;;;;15.06;49.79;102296.78;5045184;28;20041;-34
2023/01/31 06:30:46;;;;;;;8.23;3.13;;;;;;;15.05;49.37;102295.09;5046287;28;20137;-33
2023/01/31 06:33:13;;;;;;;11.57;3.88;;;;;;;15.06;49.17;102292.31;5044770;28;20136;-34
2023/01/31 06:35:40;;;;;;;12.73;3.80;;;;;;;15.06;49.84;102296.78;5047459;28;20223;-34
2023/01/31 06:38:07;;;;;;;12.00;3.70;;;;;;;15.05;49.46;102282.59;5043841;28;20440;-35
2023/01/31 06:40:35;;;;;;;7.53;3.35;;;;;;;15.06;49.67;102288.78;5047121;28;20053;-34
2023/01/31 06:43:01;;;;;;;7.40;3.33;;;;;;;15.04;49.68;102272.88;5045801;28;20396;-34
2023/01/31 06:45:28;;;;;;;9.93;3.78;;;;;;;15.05;49.34;102263.91;5044222;28;20168;-33
2023/01/31 06:47:55;;;;;;;7.55;3.40;;;;;;;15.05;49.34;102260.38;5044949;28;20459;-34
2023/01/31 06:50:22;;;;;;;6.57;3.13;;;;;;;15.05;50.34;102263.03;5046333;28;20055;-34
2023/01/31 06:52:48;;;;;;;10.80;3.92;;;;;;;15.05;50.24;102263.91;5046046;28;20053;-34
2023/01/31 06:55:15;;;;;;;13.25;3.88;;;;;;;15.05;49.15;102271.91;5041152;28;20053;-34
2023/01/31 06:57:46;;;;;;;10.35;3.65;;;;;;;15.04;50.02;102253.31;5045071;28;20063;-34
2023/01/31 07:00:13;;;;;;;9.25;3.20;;;;;;;15.05;50.33;102252.38;5045071;28;20056;-34
2023/01/31 07:02:39;;;;;;;7.22;3.38;;;;;;;15.05;50.36;102247.03;5046290;28;20061;-34
2023/01/31 07:05:06;;;;;;;9.73;3.70;;;;;;;15.05;49.37;102247.88;5044115;28;20468;-34
2023/01/31 07:07:33;;;;;;;10.43;3.38;;;;;;;15.05;50.28;102241.69;5046228;28;20175;-36
2023/01/31 07:09:59;;;;;;;6.43;3.20;;;;;;;15.05;49.92;102236.34;5040689;28;20140;-34
2023/01/31 07:12:27;;;;;;;7.20;3.22;;;;;;;15.04;50.50;102232.81;5039211;28;20475;-34
2023/01/31 07:14:53;;;;;;;9.93;3.78;;;;;;;15.05;50.28;102236.34;5050260;28;20055;-34
2023/01/31 07:17:20;;;;;;;10.63;3.28;;;;;;;15.06;50.19;102243.38;5048488;28;20053;-34
2023/01/31 07:19:46;;;;;;;10.48;3.80;;;;;;;15.05;49.82;102244.34;5048913;28;20131;-34
2023/01/31 07:22:13;;;;;;;8.55;3.40;;;;;;;15.06;49.90;102240.72;5048002;28;21094;-34
2023/01/31 07:24:40;;;;;;;8.30;3.33;;;;;;;15.05;49.65;102241.69;5044672;28;20171;-34
2023/01/31 07:27:07;;;;;;;9.63;3.58;;;;;;;15.06;50.46;102236.22;5047544;28;20472;-34
2023/01/31 07:29:33;;;;;;;9.80;3.38;;;;;;;15.06;50.35;102233.56;5045052;28;20241;-34
2023/01/31 07:32:03;;;;;;;9.77;3.85;;;;;;;15.08;49.75;102236.16;5043064;28;20116;-34
2023/01/31 07:34:29;;;;;;;11.27;3.40;;;;;;;15.08;50.64;102230.81;5041661;28;20056;-37
2023/01/31 07:36:56;;;;;;;6.10;3.53;;;;;;;15.08;50.39;102241.50;5042065;28;20424;-38
2023/01/31 07:39:23;;;;;;;7.40;3.28;;;;;;;15.09;50.31;102235.19;5041624;28;20049;-36
2023/01/31 07:41:49;;;;;;;9.55;3.20;;;;;;;15.08;49.85;102230.81;5038579;28;20053;-34
2023/01/31 07:44:16;;;;;;;8.40;3.30;;;;;;;15.08;49.89;102212.13;5047060;28;20313;-36
2023/01/31 07:46:42;;;;;;;11.90;4.18;;;;;;;15.08;49.98;102214.78;5038666;28;20132;-34
2023/01/31 07:49:10;;;;;;;8.60;3.33;;;;;;;15.09;50.43;102216.50;5044026;28;20045;-34
2023/01/31 07:51:37;;;;;;;10.68;3.53;;;;;;;15.09;50.03;102211.16;5046154;28;20056;-34
2023/01/31 07:54:06;;;;;;;9.75;3.50;;;;;;;15.11;50.70;102211.03;5043201;28;20358;-34
2023/01/31 07:56:32;;;;;;;6.65;3.10;;;;;;;15.12;50.39;102208.28;5041810;28;20056;-34
2023/01/31 07:58:59;;;;;;;6.82;3.13;;;;;;;15.12;49.76;102200.28;5042958;28;20428;-34
2023/01/31 08:04:16;;;;;;;6.60;2.95;;;;;;;15.14;49.83;102186.81;5039925;28;20053;-34
2023/01/31 08:06:49;;;;;;;9.43;3.13;;;;;;;15.15;50.13;102186.69;5037391;28;20053;-34
2023/01/31 08:09:16;;;;;;;6.93;2.45;;;;;;;15.15;49.78;102186.69;5040679;28;20053;-34
2023/01/31 08:11:42;;;;;;;5.80;2.45;;;;;;;15.16;50.42;102179.56;5040036;28;20124;-34
2023/01/31 08:14:09;;;;;;;7.57;3.08;;;;;;;15.17;49.80;102175.94;5039534;28;20049;-34
2023/01/31 08:16:36;;;;;;;8.90;3.20;;;;;;;15.18;50.01;102172.28;5046312;28;20044;-36
2023/01/31 08:19:03;;;;;;;8.52;3.38;;;;;;;15.19;50.67;102174.00;5046431;28;20045;-34
2023/01/31 08:21:30;;;;;;;7.70;3.10;;;;;;;15.19;50.15;102174.84;5043976;28;20044;-34
2023/01/31 08:23:57;;;;;;;6.03;2.67;;;;;;;15.20;50.58;102159.72;5045239;28;20044;-34
2023/01/31 08:26:23;;;;;;;8.20;3.15;;;;;;;15.21;50.28;102164.09;5046977;28;20044;-34
2023/01/31 08:28:51;;;;;;;7.80;3.20;;;;;;;15.21;49.83;102167.59;5045373;28;20366;-33
2023/01/31 08:31:23;;;;;;;7.03;2.50;;;;;;;15.22;49.54;102158.63;5051309;28;20139;-34
2023/01/31 08:33:52;;;;;;;7.68;3.05;;;;;;;15.24;50.57;102158.53;5048920;28;20060;-34
2023/01/31 08:36:28;;;;;;;8.07;2.90;;;;;;;15.23;50.04;102157.66;5049526;28;20053;-34
2023/01/31 08:38:55;;;;;;;10.60;3.22;;;;;;;15.24;50.07;102162.06;5041666;28;20046;-37
2023/01/31 08:41:23;;;;;;;8.05;3.63;;;;;;;15.24;49.65;102162.06;5044182;28;20060;-38
2023/01/31 08:43:50;;;;;;;6.05;2.47;;;;;;;15.25;49.89;102146.91;5044800;28;20459;-34
2023/01/31 08:46:28;;;;;;;4.90;2.55;;;;;;;15.24;50.22;102164.75;5040818;28;20103;-34
2023/01/31 08:48:57;;;;;;;6.20;2.83;;;;;;;15.26;50.05;102176.16;5042492;28;20049;-34
2023/01/31 08:51:24;;;;;;;6.28;2.63;;;;;;;15.27;50.65;102177.88;5039460;28;20330;-34
2023/01/31 08:53:51;;;;;;;5.55;2.45;;;;;;;15.27;50.68;102179.69;5038839;28;20395;-33
2023/01/31 08:56:20;;;;;;;8.57;3.53;;;;;;;15.27;50.68;102177.00;5039373;28;20045;-34
2023/01/31 08:58:47;;;;;;;5.82;2.50;;;;;;;15.27;49.70;102177.88;5039056;28;20325;-33
2023/01/31 09:01:16;;;;;;;7.55;2.78;;;;;;;15.27;49.69;102185.03;5041520;28;20059;-34
2023/01/31 09:03:44;;;;;;;7.25;2.40;;;;;;;15.28;49.93;102174.25;5044023;28;20467;-34
2023/01/31 09:06:14;;;;;;;6.50;2.67;;;;;;;15.29;50.42;102172.44;5039634;28;20078;-34
2023/01/31 09:08:40;;;;;;;6.10;2.50;;;;;;;15.28;49.70;102155.56;5042073;28;20442;-34
2023/01/31 09:11:07;;;;;;;8.75;2.97;;;;;;;15.29;50.60;102159.94;5041685;28;20048;-35
2023/01/31 09:13:34;;;;;;;8.57;2.67;;;;;;;15.30;50.29;102156.28;5041673;28;20053;-34
2023/01/31 09:16:07;;;;;;;8.07;2.60;;;;;;;15.31;49.77;102158.00;5039751;28;20060;-34
2023/01/31 09:18:38;;;;;;;7.65;2.33;;;;;;;15.31;49.70;102166.00;5041534;28;20060;-34
2023/01/31 09:21:09;;;;;;;7.60;2.65;;;;;;;15.32;50.54;102153.53;5039140;28;20524;-34
2023/01/31 09:23:36;;;;;;;5.57;2.13;;;;;;;15.35;49.92;102141.78;5039911;28;20057;-34
2023/01/31 09:26:07;;;;;;;9.40;2.88;;;;;;;15.36;50.31;102148.84;5041711;28;20055;-34
2023/01/31 09:28:34;;;;;;;6.63;2.30;;;;;;;15.38;50.09;102133.56;5040596;28;20045;-34
2023/01/31 09:31:09;;;;;;;9.18;2.65;;;;;;;15.37;50.19;102132.72;5040550;28;20136;-34
2023/01/31 09:33:36;;;;;;;5.80;2.28;;;;;;;15.39;50.10;102130.75;5046212;28;20052;-35
2023/01/31 09:36:08;;;;;;;4.93;2.33;;;;;;;15.41;49.93;102128.00;5047853;28;20460;-36
2023/01/31 09:38:35;;;;;;;4.65;2.42;;;;;;;15.42;49.69;102140.41;5050281;28;20041;-36
2023/01/31 09:41:05;;;;;;;7.95;2.50;;;;;;;15.43;50.32;102128.75;5048456;28;20135;-35
2023/01/31 09:43:42;;;;;;;4.47;1.95;;;;;;;15.42;49.40;102143.06;5047284;28;20372;-36
2023/01/31 09:46:15;;;;;;;8.43;2.03;;;;;;;15.43;49.25;102134.94;5052715;28;20147;-36
2023/01/31 09:48:47;;;;;;;5.03;2.05;;;;;;;15.43;49.61;102134.94;5051526;28;20354;-36
2023/01/31 09:51:15;;;;;;;4.93;2.20;;;;;;;15.44;50.26;102130.47;5049268;28;20049;-35
2023/01/31 09:53:43;;;;;;;6.05;2.20;;;;;;;15.44;49.56;102130.47;5048895;28;20051;-35
2023/01/31 09:56:31;;;;;;;5.28;2.35;;;;;;;15.42;49.94;102135.91;5046459;28;20441;-35
2023/01/31 09:59:18;;;;;;;6.70;2.30;;;;;;;15.44;49.52;102136.69;5046823;28;20102;-36
2023/01/31 10:01:51;;;;;;;4.53;1.90;;;;;;;15.44;49.52;102151.84;5046163;28;20057;-35
2023/01/31 10:04:23;;;;;;;5.95;2.20;;;;;;;15.44;49.36;102141.16;5042259;28;20045;-36
2023/01/31 10:07:22;;;;;;;5.93;2.13;;;;;;;15.41;50.07;102126.19;5043737;28;20345;-35
2023/01/31 10:09:56;;;;;;;9.07;2.78;;;;;;;15.43;50.32;102134.09;5042708;28;20441;-35
2023/01/31 10:12:43;;;;;;;7.25;2.35;;;;;;;15.42;50.39;102132.38;5040690;28;20041;-36
2023/01/31 10:15:19;;;;;;;4.80;2.22;;;;;;;15.42;50.38;102125.22;5046109;28;20052;-35
2023/01/31 10:17:52;;;;;;;8.23;2.47;;;;;;;15.42;49.61;102127.88;5046027;28;20076;-36
2023/01/31 10:20:46;;;;;;;7.70;2.35;;;;;;;15.43;50.57;102129.59;5043936;28;20050;-33
2023/01/31 10:23:12;;;;;;;5.30;2.40;;;;;;;15.45;49.89;102133.03;5044810;28;20055;-33
2023/01/31 10:25:49;;;;;;;6.28;2.25;;;;;;;15.45;50.51;102130.38;5045086;28;20073;-34
2023/01/31 10:28:25;;;;;;;7.20;2.10;;;;;;;15.46;50.09;102133.88;5044837;28;20057;-35
2023/01/31 10:31:15;;;;;;;5.72;2.35;;;;;;;15.46;50.76;102137.41;5043453;28;20439;-34
2023/01/31 10:33:56;;;;;;;5.63;1.90;;;;;;;15.46;50.86;102136.56;5039759;28;20115;-33
2023/01/31 10:36:35;;;;;;;6.45;1.92;;;;;;;15.47;49.74;102124.91;5042035;28;20057;-34
2023/01/31 10:39:27;;;;;;;10.07;2.47;;;;;;;15.46;49.90;102107.16;5041438;28;20060;-34
2023/01/31 10:42:01;;;;;;;5.82;1.88;;;;;;;15.49;49.66;102112.31;5041403;28;20080;-34
2023/01/31 10:44:45;;;;;;;6.22;2.15;;;;;;;15.49;50.85;102109.63;5040383;28;20329;-34
2023/01/31 10:47:14;;;;;;;4.82;1.73;;;;;;;15.51;50.75;102105.88;5042670;28;20048;-34
2023/01/31 10:49:47;;;;;;;3.72;1.75;;;;;;;15.51;50.09;102119.22;5047558;28;20055;-34
2023/01/31 10:52:59;;;;;;;3.47;1.77;;;;;;;15.49;49.87;102121.19;5050294;28;20421;-34
2023/01/31 10:55:40;;;;;;;4.72;2.05;;;;;;;15.53;50.75;102111.13;5046178;28;20045;-35
2023/01/31 10:58:17;;;;;;;6.57;1.77;;;;;;;15.53;50.90;102119.16;5048742;28;20064;-34
2023/01/31 11:00:46;;;;;;;5.40;2.10;;;;;;;15.55;50.52;102123.41;5048287;28;20076;-34
2023/01/31 11:03:14;;;;;;;4.35;1.73;;;;;;;15.56;50.91;102121.63;5045967;28;20078;-34
2023/01/31 11:05:51;;;;;;;5.03;2.10;;;;;;;15.55;50.34;102122.56;5046146;28;20042;-34
2023/01/31 11:08:31;;;;;;;6.35;2.03;;;;;;;15.56;50.19;102129.63;5041379;28;20084;-34
2023/01/31 11:11:04;;;;;;;5.75;2.15;;;;;;;15.57;50.68;102126.00;5046461;28;20045;-33
2023/01/31 11:13:31;;;;;;;3.20;2.00;;;;;;;15.59;49.99;102131.22;5043871;28;20128;-34
2023/01/31 11:15:58;;;;;;;4.88;1.95;;;;;;;15.59;50.45;102117.84;5043566;28;20060;-34
2023/01/31 11:18:29;;;;;;;5.68;1.90;;;;;;;15.59;50.61;102120.53;5046194;28;20053;-34
2023/01/31 11:20:57;;;;;;;5.13;1.77;;;;;;;15.59;50.01;102124.06;5041538;28;20033;-34
2023/01/31 11:23:27;;;;;;;4.03;1.85;;;;;;;15.59;51.06;102128.53;5043506;28;20049;-34
2023/01/31 11:25:55;;;;;;;4.20;1.55;;;;;;;15.60;50.96;102119.56;5041087;28;20045;-34
2023/01/31 11:28:35;;;;;;;5.03;1.85;;;;;;;15.60;50.36;102117.78;5040118;28;20049;-34
2023/01/31 11:31:05;;;;;;;6.20;1.75;;;;;;;15.61;50.98;102115.94;5041183;28;20045;-33
2023/01/31 11:33:59;;;;;;;4.88;1.90;;;;;;;15.60;49.96;102111.53;5044640;28;20349;-34
2023/01/31 11:36:32;;;;;;;6.28;1.92;;;;;;;15.60;50.19;102106.19;5045291;28;20045;-34
2023/01/31 11:38:58;;;;;;;4.93;1.93;;;;;;;15.61;51.03;102105.25;5043594;28;20064;-35
2023/01/31 11:41:34;;;;;;;5.03;2.13;;;;;;;15.59;51.00;102097.31;5045759;28;20041;-35
2023/01/31 11:44:22;;;;;;;4.05;1.58;;;;;;;15.58;50.09;102098.31;5038963;28;20421;-34
2023/01/31 11:46:53;;;;;;;7.28;2.08;;;;;;;15.60;50.03;102101.72;5043231;28;20076;-36
2023/01/31 11:49:26;;;;;;;5.72;1.80;;;;;;;15.61;51.07;102107.94;5042624;28;20068;-34